Time;durP1;ratioP1;P1;durP2;ratioP2;P2;SDS_P1;SDS_P2;PMS_P1;PMS_P2;Temp;Humidity;BMP_temperature;BMP_pressure;BME280_temperature;BME280_humidity;BME280_pressure;Samples;Min_cycle;Max_cycle;Signal;HPM_P1;HPM_P2
2021/08/03 00:02:06;;;;;;;;;4.75;4.75;;;;;17.01;76.18;100207.66;4996850;28;45185;-86
2021/08/03 00:04:41;;;;;;;;;7.50;6.50;;;;;17.07;76.20;100220.56;4980442;28;45189;-87
2021/08/03 00:07:10;;;;;;;;;5.25;5.25;;;;;17.09;76.02;100217.75;4980549;28;45436;-88
2021/08/03 00:09:38;;;;;;;;;6.25;6.25;;;;;17.02;76.63;100205.84;4998062;28;46077;-86
2021/08/03 00:12:04;;;;;;;;;6.25;6.25;;;;;17.04;75.94;100204.72;4998370;28;45138;-87
2021/08/03 00:14:35;;;;;;;;;7.00;7.00;;;;;17.02;76.11;100195.09;4998119;28;45254;-86
2021/08/03 00:17:01;;;;;;;;;6.00;6.00;;;;;16.97;76.24;100191.97;4998187;28;45300;-86
2021/08/03 00:19:27;;;;;;;;;5.75;5.75;;;;;17.11;76.15;100215.78;4996544;28;47860;-86
2021/08/03 00:21:53;;;;;;;;;7.00;7.00;;;;;16.91;75.81;100190.66;4998066;28;45323;-87
2021/08/03 00:24:26;;;;;;;;;5.50;5.50;;;;;17.14;75.64;100226.25;4997283;28;45197;-87
2021/08/03 00:26:51;;;;;;;;;6.25;5.75;;;;;17.13;75.80;100231.75;4981104;28;45216;-86
2021/08/03 00:29:17;;;;;;;;;9.00;7.75;;;;;17.02;75.57;100211.22;4996134;28;48204;-89
2021/08/03 00:31:43;;;;;;;;;10.75;7.50;;;;;16.84;75.35;100181.44;4979283;28;45134;-87
2021/08/03 00:34:08;;;;;;;;;8.50;7.25;;;;;16.93;75.54;100202.16;4996419;28;45192;-87
2021/08/03 00:36:34;;;;;;;;;7.75;6.75;;;;;16.86;75.79;100192.88;4996417;28;45309;-87
2021/08/03 00:38:59;;;;;;;;;8.00;7.75;;;;;16.69;75.25;100165.69;4979627;28;47064;-87
2021/08/03 00:41:35;;;;;;;;;7.75;7.75;;;;;16.87;76.20;100194.56;4996561;28;45615;-87
2021/08/03 00:44:01;;;;;;;;;7.00;7.00;;;;;16.92;76.39;100203.13;4963851;28;45104;-87
2021/08/03 00:46:26;;;;;;;;;7.50;6.50;;;;;16.61;76.60;100141.34;4980014;28;45308;-86
2021/08/03 00:48:51;;;;;;;;;7.25;7.25;;;;;16.95;76.73;100189.41;4997321;28;45396;-87
2021/08/03 00:51:22;;;;;;;;;8.50;7.00;;;;;16.63;76.31;100142.06;4980265;28;45577;-86
2021/08/03 00:53:49;;;;;;;;;5.00;5.00;;;;;17.01;76.48;100198.78;4979308;28;45137;-86
2021/08/03 00:56:15;;;;;;;;;8.00;8.00;;;;;16.95;76.40;100185.91;4964173;28;45048;-86
2021/08/03 00:58:40;;;;;;;;;6.25;6.00;;;;;16.93;76.39;100186.03;4979706;28;45619;-87
2021/08/03 01:01:06;;;;;;;;;6.00;6.00;;;;;16.89;76.87;100176.53;4979505;28;45069;-87
2021/08/03 01:03:32;;;;;;;;;7.00;7.00;;;;;16.99;76.77;100190.00;4979617;28;45258;-86
2021/08/03 01:06:31;;;;;;;;;8.00;6.75;;;;;16.88;76.85;100175.69;4979689;28;45309;-87
2021/08/03 01:09:50;;;;;;;;;6.75;6.75;;;;;16.88;76.51;100166.78;4990644;28;45279;-87
2021/08/03 01:12:16;;;;;;;;;7.75;7.00;;;;;17.09;76.38;100196.25;4898501;29;45535;-86
2021/08/03 01:15:07;;;;;;;;;7.00;7.00;;;;;17.09;76.46;100196.25;4898401;29;45311;-87
2021/08/03 01:18:03;;;;;;;;;9.25;8.00;;;;;17.10;76.57;100197.09;4891846;29;45146;-87
2021/08/03 01:20:50;;;;;;;;;7.50;7.50;;;;;17.02;76.86;100176.31;4898201;29;45505;-86
2021/08/03 01:23:31;;;;;;;;;7.75;6.50;;;;;17.10;77.13;100192.56;4882375;29;45601;-87
2021/08/03 01:26:31;;;;;;;;;6.25;6.25;;;;;17.13;76.84;100180.72;4898259;29;45255;-88
2021/08/03 01:29:04;;;;;;;;;9.75;7.75;;;;;17.00;76.78;100164.84;4897887;29;45416;-86
2021/08/03 01:31:58;;;;;;;;;7.50;7.50;;;;;17.14;76.49;100175.19;4882177;29;45271;-86
2021/08/03 01:34:26;;;;;;;;;8.00;6.00;;;;;17.07;76.97;100156.13;4897704;29;45446;-87
2021/08/03 01:36:59;;;;;;;;;9.00;6.75;;;;;17.06;76.49;100161.63;4882584;29;45178;-87
2021/08/03 01:39:35;;;;;;;;;8.00;7.00;;;;;16.76;76.26;100106.94;4882311;29;45312;-86
2021/08/03 01:42:11;;;;;;;;;11.00;7.75;;;;;17.13;76.46;100175.34;4898057;29;45425;-86
2021/08/03 01:44:39;;;;;;;;;8.50;6.75;;;;;17.11;76.79;100175.47;4897075;29;45258;-86
2021/08/03 01:47:06;;;;;;;;;9.50;9.50;;;;;17.12;76.42;100176.34;4970806;28;45271;-86
2021/08/03 01:49:41;;;;;;;;;7.50;5.75;;;;;17.12;76.67;100177.19;4996775;28;45357;-86
2021/08/03 01:52:09;;;;;;;;;8.25;7.00;;;;;16.79;76.78;100127.28;4978790;28;47582;-87
2021/08/03 01:54:37;;;;;;;;;8.00;8.00;;;;;16.97;76.57;100152.53;4979138;28;45308;-86
2021/08/03 01:57:23;;;;;;;;;7.50;7.50;;;;;17.06;76.79;100175.91;4979114;28;45117;-87
2021/08/03 01:59:52;;;;;;;;;9.25;7.00;;;;;16.98;76.53;100164.13;4996860;28;45201;-87
2021/08/03 02:02:18;;;;;;;;;8.25;7.00;;;;;16.90;76.57;100154.06;4978553;28;47375;-88
2021/08/03 02:04:46;;;;;;;;;8.00;8.00;;;;;16.96;76.68;100175.00;4978981;28;45297;-86
2021/08/03 02:07:14;;;;;;;;;8.00;6.75;;;;;16.73;77.22;100136.72;4978666;28;45245;-88
2021/08/03 02:09:42;;;;;;;;;7.25;7.25;;;;;16.80;77.27;100161.19;4996738;28;45280;-88
2021/08/03 02:12:07;;;;;;;;;9.25;9.25;;;;;16.86;77.53;100172.25;4978336;28;48072;-88
2021/08/03 02:14:33;;;;;;;;;7.00;7.00;;;;;16.70;77.85;100155.78;4978344;28;45706;-87
2021/08/03 02:16:58;;;;;;;;;6.75;6.75;;;;;16.74;78.15;100159.91;4978655;28;45248;-87
2021/08/03 02:19:24;;;;;;;;;9.00;7.75;;;;;16.68;77.85;100160.44;4978766;28;45305;-87
2021/08/03 02:21:49;;;;;;;;;7.00;7.00;;;;;16.67;77.71;100158.75;4977919;28;47908;-87
2021/08/03 02:24:14;;;;;;;;;6.75;6.75;;;;;16.58;78.05;100146.13;4978485;28;45095;-87
2021/08/03 02:26:40;;;;;;;;;9.75;9.00;;;;;16.67;78.31;100166.78;4996212;28;45172;-88
2021/08/03 02:29:06;;;;;;;;;10.00;9.25;;;;;16.56;78.48;100149.78;4978434;28;45354;-88
2021/08/03 02:31:38;;;;;;;;;10.50;7.50;;;;;16.69;78.07;100170.22;4977766;28;47363;-88
2021/08/03 02:34:19;;;;;;;;;8.50;7.75;;;;;16.64;78.39;100170.59;4994593;28;45772;-88
2021/08/03 02:36:49;;;;;;;;;6.75;6.75;;;;;16.59;78.18;100161.22;4994849;28;45241;-87
2021/08/03 02:39:16;;;;;;;;;9.75;8.00;;;;;16.51;78.43;100157.38;4994701;28;45174;-88
2021/08/03 02:41:45;;;;;;;;;9.75;9.75;;;;;16.61;78.25;100176.22;4978173;28;47356;-88
2021/08/03 02:44:12;;;;;;;;;7.50;7.50;;;;;16.58;78.47;100179.19;4978218;28;45306;-88
2021/08/03 02:46:40;;;;;;;;;8.50;7.00;;;;;16.46;78.03;100166.81;4979543;28;45138;-88
2021/08/03 02:49:12;;;;;;;;;6.75;6.50;;;;;16.49;78.24;100175.47;4981476;28;45130;-87
2021/08/03 02:51:39;;;;;;;;;5.75;5.25;;;;;16.46;78.20;100161.44;4981158;28;47172;-89
2021/08/03 02:54:22;;;;;;;;;5.50;5.50;;;;;16.36;78.65;100156.03;4981318;28;45535;-88
2021/08/03 02:56:51;;;;;;;;;5.75;5.00;;;;;16.41;79.01;100161.00;4981361;28;45255;-88
2021/08/03 02:59:19;;;;;;;;;5.00;5.00;;;;;16.07;79.50;100104.91;4981634;28;45359;-88
2021/08/03 03:01:45;;;;;;;;;4.00;4.00;;;;;16.29;78.41;100150.34;4981408;28;48577;-88
2021/08/03 03:04:19;;;;;;;;;6.00;6.00;;;;;16.33;78.18;100164.34;4981226;28;45510;-89
2021/08/03 03:06:51;;;;;;;;;5.00;3.75;;;;;16.27;78.55;100149.63;4997788;28;45298;-88
2021/08/03 03:09:20;;;;;;;;;5.75;5.75;;;;;16.22;78.47;100159.91;4981279;28;45182;-87
2021/08/03 03:11:46;;;;;;;;;4.00;4.00;;;;;16.15;79.14;100146.16;4997485;28;47612;-88
2021/08/03 03:14:12;;;;;;;;;5.75;5.00;;;;;16.11;79.05;100144.72;4981256;28;45329;-87
2021/08/03 03:16:41;;;;;;;;;4.25;4.25;;;;;16.15;79.40;100156.06;4980990;28;45240;-88
2021/08/03 03:19:08;;;;;;;;;5.00;4.00;;;;;16.01;79.69;100128.56;4981140;28;45126;-88
2021/08/03 03:21:35;;;;;;;;;4.75;4.75;;;;;16.16;79.30;100145.19;4998703;28;46317;-89
2021/08/03 03:24:02;;;;;;;;;6.00;6.00;;;;;15.91;79.60;100102.69;4997392;28;45172;-87
2021/08/03 03:26:31;;;;;;;;;3.75;3.75;;;;;15.97;79.47;100107.50;4997400;28;45163;-87
2021/08/03 03:28:58;;;;;;;;;4.75;4.75;;;;;16.08;79.79;100120.84;4981284;28;45131;-88
2021/08/03 03:31:29;;;;;;;;;5.00;4.50;;;;;16.25;79.95;100148.91;4980426;28;48339;-88
2021/08/03 03:33:56;;;;;;;;;4.75;4.75;;;;;16.20;79.93;100143.94;4981085;28;45636;-87
2021/08/03 03:36:27;;;;;;;;;4.75;4.75;;;;;15.97;79.50;100104.81;4997694;28;45313;-87
2021/08/03 03:38:56;;;;;;;;;4.50;4.50;;;;;16.10;79.44;100113.50;4981224;28;45428;-88
2021/08/03 03:41:23;;;;;;;;;5.25;5.25;;;;;16.09;79.75;100119.00;4980306;28;47329;-88
2021/08/03 03:43:48;;;;;;;;;6.75;4.50;;;;;16.26;79.52;100152.44;4980425;28;45569;-88
2021/08/03 03:46:16;;;;;;;;;6.00;5.00;;;;;16.24;79.90;100146.38;4980575;28;45210;-89
2021/08/03 03:49:05;;;;;;;;;5.50;5.50;;;;;16.05;79.80;100115.75;4997173;28;45248;-87
2021/08/03 03:51:34;;;;;;;;;4.00;4.00;;;;;15.96;80.05;100116.53;4980357;28;47496;-87
2021/08/03 03:54:03;;;;;;;;;5.00;4.75;;;;;16.00;79.78;100129.56;4980240;28;45347;-87
2021/08/03 03:56:36;;;;;;;;;3.00;3.00;;;;;16.12;79.94;100159.84;4996773;28;45236;-86
2021/08/03 03:59:03;;;;;;;;;2.00;2.00;;;;;16.10;79.83;100158.25;4995387;28;45185;-86
2021/08/03 04:01:30;;;;;;;;;1.75;0.75;;;;;16.07;80.52;100156.69;4996425;28;48016;-87
2021/08/03 04:03:58;;;;;;;;;2.00;0.50;;;;;15.98;79.00;100138.72;4998022;28;45177;-86
2021/08/03 04:06:25;;;;;;;;;2.00;1.00;;;;;15.84;78.54;100127.31;4980545;28;45406;-88
2021/08/03 04:08:50;;;;;;;;;2.00;1.00;;;;;15.68;78.82;100110.81;4980411;28;45203;-87
2021/08/03 04:11:16;;;;;;;;;1.00;0.50;;;;;15.87;78.80;100143.13;4997617;28;45217;-87
2021/08/03 04:13:44;;;;;;;;;0.00;0.00;;;;;15.86;78.57;100143.25;4996582;28;45289;-86
2021/08/03 04:16:09;;;;;;;;;0.50;0.50;;;;;15.54;78.27;100103.91;4980136;28;45074;-87
2021/08/03 04:18:35;;;;;;;;;0.00;0.00;;;;;15.77;79.34;100146.69;4980208;28;45461;-87
2021/08/03 04:21:00;;;;;;;;;0.75;0.00;;;;;15.76;79.26;100156.59;4996216;28;47071;-86
2021/08/03 04:23:25;;;;;;;;;0.75;0.00;;;;;15.71;79.48;100151.56;4996427;28;45293;-87
2021/08/03 04:25:51;;;;;;;;;0.25;0.25;;;;;15.64;78.98;100138.81;4979971;28;45171;-88
2021/08/03 04:28:16;;;;;;;;;0.00;0.00;;;;;15.62;79.05;100144.31;4980166;28;45403;-87
2021/08/03 04:30:41;;;;;;;;;0.50;0.00;;;;;15.61;78.78;100141.78;4997333;28;45254;-87
2021/08/03 04:33:07;;;;;;;;;0.25;0.25;;;;;15.69;79.51;100166.94;4979760;28;45199;-87
2021/08/03 04:35:32;;;;;;;;;0.00;0.00;;;;;15.67;79.74;100155.50;4979879;28;45182;-87
2021/08/03 04:37:57;;;;;;;;;0.00;0.00;;;;;15.52;78.94;100130.84;4996029;28;45312;-87
2021/08/03 04:40:23;;;;;;;;;2.00;2.00;;;;;15.59;79.10;100143.72;4979417;28;47258;-87
2021/08/03 04:42:49;;;;;;;;;1.75;0.75;;;;;15.62;79.50;100151.50;4979636;28;45974;-88
2021/08/03 04:45:14;;;;;;;;;1.00;1.00;;;;;15.65;79.72;100157.47;4979771;28;45200;-86
2021/08/03 04:47:45;;;;;;;;;0.75;0.25;;;;;15.56;79.35;100150.16;4997393;28;45269;-87
2021/08/03 04:50:13;;;;;;;;;1.00;1.00;;;;;15.56;79.87;100154.69;4995957;28;47195;-87
2021/08/03 04:52:39;;;;;;;;;0.75;0.75;;;;;15.65;79.60;100154.78;4979289;28;45791;-87
2021/08/03 04:55:05;;;;;;;;;2.25;1.25;;;;;15.67;79.74;100160.00;4995973;28;45227;-87
2021/08/03 04:57:31;;;;;;;;;0.25;0.25;;;;;15.51;79.35;100131.81;4979484;28;45248;-86
2021/08/03 04:59:57;;;;;;;;;0.50;0.00;;;;;15.62;79.63;100141.63;4978802;28;46674;-87
2021/08/03 05:02:22;;;;;;;;;1.00;1.00;;;;;15.51;79.26;100130.97;4979269;28;45597;-87
2021/08/03 05:04:48;;;;;;;;;0.25;0.25;;;;;15.60;79.14;100142.75;4979394;28;45264;-88
2021/08/03 05:07:13;;;;;;;;;0.75;0.75;;;;;15.49;79.17;100128.41;4995677;28;45480;-86
2021/08/03 05:09:39;;;;;;;;;1.00;1.00;;;;;15.60;79.67;100140.06;4978807;28;47221;-86
2021/08/03 05:12:05;;;;;;;;;1.50;1.50;;;;;15.59;79.90;100136.53;4979546;28;45963;-88
2021/08/03 05:14:30;;;;;;;;;1.00;1.00;;;;;15.52;79.37;100121.97;4979302;28;45199;-87
2021/08/03 05:16:58;;;;;;;;;0.75;0.00;;;;;15.75;79.10;100156.69;4979242;28;45198;-89
2021/08/03 05:19:23;;;;;;;;;0.00;0.00;;;;;15.68;79.33;100137.59;4979087;28;48300;-88
2021/08/03 05:21:48;;;;;;;;;1.00;1.00;;;;;15.64;79.44;100137.00;4996747;28;45215;-88
2021/08/03 05:24:13;;;;;;;;;1.50;0.75;;;;;15.64;79.00;100137.00;4979303;28;45264;-87
2021/08/03 05:26:39;;;;;;;;;0.75;0.75;;;;;15.62;79.16;100136.28;4979209;28;45285;-88
2021/08/03 05:29:04;;;;;;;;;1.00;1.00;;;;;15.71;79.24;100156.09;4978975;28;47005;-88
2021/08/03 05:31:29;;;;;;;;;0.25;0.25;;;;;15.80;79.36;100166.06;4995084;28;45309;-88
2021/08/03 05:33:55;;;;;;;;;1.75;0.00;;;;;15.74;79.83;100158.53;4979051;28;45219;-88
2021/08/03 05:36:20;;;;;;;;;0.00;0.00;;;;;15.66;79.43;100143.09;4979017;28;45436;-89
2021/08/03 05:38:45;;;;;;;;;0.00;0.00;;;;;15.70;79.34;100155.25;4979038;28;46839;-89
2021/08/03 05:41:11;;;;;;;;;0.00;0.00;;;;;15.80;79.49;100170.59;4978735;28;45628;-87
2021/08/03 05:43:36;;;;;;;;;0.00;0.00;;;;;15.74;79.37;100160.34;4995411;28;45295;-89
2021/08/03 05:46:02;;;;;;;;;0.00;0.00;;;;;15.78;79.01;100167.16;4979047;28;45228;-88
2021/08/03 05:48:27;;;;;;;;;1.00;1.00;;;;;15.80;79.02;100171.44;4995189;28;48269;-89
2021/08/03 05:50:52;;;;;;;;;0.00;0.00;;;;;15.85;78.73;100179.13;4978587;28;45178;-88
2021/08/03 05:53:18;;;;;;;;;0.50;0.50;;;;;15.80;79.01;100166.06;4978899;28;45232;-88
2021/08/03 05:55:43;;;;;;;;;0.00;0.00;;;;;15.68;79.12;100138.44;4978819;28;45385;-87
2021/08/03 05:58:08;;;;;;;;;0.00;0.00;;;;;15.76;78.92;100144.97;4978507;28;47124;-88
2021/08/03 06:00:34;;;;;;;;;0.00;0.00;;;;;15.85;78.92;100155.81;4996332;28;45239;-88
2021/08/03 06:02:59;;;;;;;;;0.00;0.00;;;;;15.82;79.18;100148.03;4978681;28;45296;-87
2021/08/03 06:05:29;;;;;;;;;1.00;0.00;;;;;15.90;79.24;100154.59;4978612;28;45346;-88
2021/08/03 06:07:59;;;;;;;;;0.00;0.00;;;;;16.03;79.32;100163.28;4978279;28;48161;-87
2021/08/03 06:10:27;;;;;;;;;3.00;3.00;;;;;15.98;79.62;100150.28;4994684;28;45685;-89
2021/08/03 06:12:55;;;;;;;;;0.25;0.25;;;;;16.14;79.49;100165.91;4995998;28;45231;-87
2021/08/03 06:15:21;;;;;;;;;1.00;0.00;;;;;16.15;79.53;100159.56;4978258;28;45166;-87
2021/08/03 06:17:58;;;;;;;;;2.75;0.50;;;;;16.20;79.60;100159.19;4994489;28;47315;-88
2021/08/03 06:20:23;;;;;;;;;1.00;1.00;;;;;16.31;80.24;100177.06;4978167;28;45313;-88
2021/08/03 06:22:50;;;;;;;;;1.50;0.25;;;;;16.47;79.91;100187.31;4998904;28;45219;-88
2021/08/03 06:25:15;;;;;;;;;1.00;1.00;;;;;16.43;79.71;100170.59;4981969;28;45297;-87
2021/08/03 06:27:42;;;;;;;;;0.00;0.00;;;;;16.63;79.70;100192.19;4981595;28;47170;-87
2021/08/03 06:30:09;;;;;;;;;2.00;0.50;;;;;16.70;79.80;100183.50;4978141;28;46054;-88
2021/08/03 06:32:34;;;;;;;;;1.00;1.00;;;;;16.58;79.33;100159.56;4978498;28;45216;-86
2021/08/03 06:35:01;;;;;;;;;1.00;1.00;;;;;16.79;79.49;100187.19;4978195;28;45273;-87
2021/08/03 06:37:27;;;;;;;;;0.75;0.75;;;;;16.81;79.04;100181.69;4978319;28;47944;-88
2021/08/03 06:39:52;;;;;;;;;1.75;1.00;;;;;16.85;79.28;100181.28;4978126;28;45142;-87
2021/08/03 06:42:36;;;;;;;;;1.25;1.25;;;;;17.00;78.92;100200.63;4977936;28;45147;-88
2021/08/03 06:45:05;;;;;;;;;3.00;1.75;;;;;17.07;78.54;100203.59;4978344;28;45295;-88
2021/08/03 06:47:46;;;;;;;;;3.25;2.50;;;;;17.09;78.70;100201.63;4978027;28;48048;-88
2021/08/03 06:50:13;;;;;;;;;2.00;1.75;;;;;17.16;78.21;100205.47;4979521;28;45223;-87
2021/08/03 06:52:38;;;;;;;;;2.00;2.00;;;;;17.17;78.36;100192.88;4978126;28;45191;-86
2021/08/03 06:55:06;;;;;;;;;2.00;2.00;;;;;17.27;78.18;100207.19;4978029;28;45436;-86
2021/08/03 06:57:34;;;;;;;;;3.00;2.25;;;;;17.24;77.69;100200.28;4978179;28;47667;-86
2021/08/03 07:00:05;;;;;;;;;3.75;2.00;;;;;17.32;78.46;100198.75;4978099;28;45858;-89
2021/08/03 07:02:35;;;;;;;;;2.00;2.00;;;;;17.40;78.17;100194.38;4977693;28;45519;-89
2021/08/03 07:05:09;;;;;;;;;3.00;3.00;;;;;17.59;77.72;100220.44;4977915;28;45467;-88
2021/08/03 07:07:36;;;;;;;;;3.00;3.00;;;;;17.58;78.52;100197.22;4977697;28;47034;-88
2021/08/03 07:10:05;;;;;;;;;2.00;2.00;;;;;17.82;77.76;100220.19;4978105;28;45182;-87
2021/08/03 07:12:31;;;;;;;;;3.00;3.00;;;;;17.88;78.00;100211.53;4977664;28;45142;-88
2021/08/03 07:14:57;;;;;;;;;3.50;3.00;;;;;17.88;77.10;100184.66;4979292;28;45138;-88
2021/08/03 07:17:25;;;;;;;;;3.00;3.00;;;;;18.20;76.58;100223.06;4977723;28;48519;-88
2021/08/03 07:19:52;;;;;;;;;3.00;2.00;;;;;18.11;75.80;100190.66;4977546;28;45209;-87
2021/08/03 07:22:17;;;;;;;;;2.00;2.00;;;;;18.12;76.11;100186.09;4979078;28;45250;-87
2021/08/03 07:24:44;;;;;;;;;3.75;3.75;;;;;18.08;75.24;100184.69;4977691;28;45364;-88
2021/08/03 07:27:10;;;;;;;;;3.00;3.00;;;;;18.20;75.49;100207.78;4978661;28;46612;-87
2021/08/03 07:29:35;;;;;;;;;3.75;3.75;;;;;18.21;75.43;100211.31;4981078;28;45204;-87
2021/08/03 07:32:01;;;;;;;;;5.00;4.75;;;;;18.22;74.82;100215.69;4980166;28;45257;-88
2021/08/03 07:34:26;;;;;;;;;2.75;2.75;;;;;18.18;75.38;100207.03;4998672;28;45191;-87
2021/08/03 07:36:52;;;;;;;;;3.00;3.00;;;;;18.29;75.43;100222.22;4998183;28;45171;-87
2021/08/03 07:39:19;;;;;;;;;2.00;2.00;;;;;18.26;75.25;100223.34;4996933;28;45227;-87
2021/08/03 07:41:44;;;;;;;;;3.25;3.25;;;;;18.25;74.83;100204.66;4998289;28;45217;-86
2021/08/03 07:44:09;;;;;;;;;2.25;2.25;;;;;18.26;75.15;100212.56;4980558;28;45240;-87
2021/08/03 07:46:35;;;;;;;;;3.00;3.00;;;;;18.28;74.41;100207.91;4980431;28;48599;-86
2021/08/03 07:49:03;;;;;;;;;3.00;3.00;;;;;18.35;73.92;100221.63;4980458;28;45300;-87
2021/08/03 07:51:29;;;;;;;;;3.50;3.00;;;;;18.31;74.52;100214.81;4998439;28;45150;-88
2021/08/03 07:53:54;;;;;;;;;2.00;2.00;;;;;18.42;74.58;100224.59;4998536;28;45197;-88
2021/08/03 07:56:20;;;;;;;;;2.50;2.50;;;;;18.52;74.93;100224.59;4980155;28;47825;-87
2021/08/03 07:58:46;;;;;;;;;2.00;2.00;;;;;18.49;75.15;100214.13;4980295;28;45530;-86
2021/08/03 08:01:12;;;;;;;;;3.00;3.00;;;;;18.50;74.22;100208.59;4980273;28;45297;-87
2021/08/03 08:03:38;;;;;;;;;2.25;2.25;;;;;18.53;73.97;100199.38;4980424;28;45513;-87
2021/08/03 08:06:05;;;;;;;;;3.00;3.00;;;;;18.67;73.66;100201.59;4997944;28;46072;-88
2021/08/03 08:08:31;;;;;;;;;3.25;3.00;;;;;18.91;73.85;100228.06;4980085;28;45631;-87
2021/08/03 08:10:57;;;;;;;;;3.00;3.00;;;;;19.00;73.64;100204.78;4996341;28;45229;-88
2021/08/03 08:13:23;;;;;;;;;2.00;2.00;;;;;19.18;73.10;100203.97;4980230;28;45320;-87
2021/08/03 08:15:48;;;;;;;;;3.00;3.00;;;;;19.27;72.54;100193.16;4996219;28;46904;-87
2021/08/03 08:18:14;;;;;;;;;4.00;3.00;;;;;19.44;71.78;100193.34;4979910;28;45442;-87
2021/08/03 08:20:42;;;;;;;;;2.00;2.00;;;;;19.46;71.73;100177.84;4980124;28;45206;-89
2021/08/03 08:23:10;;;;;;;;;3.00;3.00;;;;;19.86;72.23;100206.28;4997385;28;45363;-86
2021/08/03 08:25:36;;;;;;;;;4.00;3.50;;;;;19.90;70.86;100183.38;4979766;28;47978;-87
2021/08/03 08:28:01;;;;;;;;;3.25;3.00;;;;;20.00;69.67;100186.84;4996094;28;45694;-88
2021/08/03 08:30:27;;;;;;;;;3.00;3.00;;;;;19.86;69.00;100168.50;4979596;28;45258;-87
2021/08/03 08:32:53;;;;;;;;;3.00;3.00;;;;;19.89;69.38;100186.25;4997545;28;45323;-87
2021/08/03 08:35:18;;;;;;;;;2.75;1.75;;;;;19.94;69.29;100197.44;4995712;28;47270;-86
2021/08/03 08:37:44;;;;;;;;;6.00;3.50;;;;;19.77;69.15;100178.34;4996169;28;45382;-86
2021/08/03 08:40:11;;;;;;;;;2.75;2.75;;;;;19.81;69.46;100192.41;4997808;28;45220;-88
2021/08/03 08:42:37;;;;;;;;;3.00;3.00;;;;;19.82;69.24;100196.78;4997364;28;45301;-86
2021/08/03 08:45:05;;;;;;;;;3.25;2.50;;;;;19.73;69.79;100190.44;4978904;28;48096;-87
2021/08/03 08:47:30;;;;;;;;;3.25;3.00;;;;;19.85;69.11;100198.34;4997380;28;45522;-87
2021/08/03 08:50:02;;;;;;;;;2.00;2.00;;;;;20.02;69.68;100216.38;4997611;28;45258;-87
2021/08/03 08:52:29;;;;;;;;;3.75;2.00;;;;;20.25;69.19;100210.50;4979549;28;45328;-86
2021/08/03 08:54:54;;;;;;;;;3.00;2.75;;;;;20.60;68.38;100227.66;4997136;28;45509;-86
2021/08/03 08:57:19;;;;;;;;;2.50;2.00;;;;;20.79;68.15;100215.81;4979199;28;45291;-87
2021/08/03 08:59:45;;;;;;;;;3.25;3.25;;;;;21.02;67.00;100206.16;4997480;28;45348;-86
2021/08/03 09:02:10;;;;;;;;;2.25;2.25;;;;;21.42;65.78;100198.38;4979220;28;45174;-88
2021/08/03 09:04:41;;;;;;;;;3.00;2.00;;;;;21.85;65.12;100201.03;4979059;28;48263;-87
2021/08/03 09:07:07;;;;;;;;;5.75;2.00;;;;;22.04;64.28;100207.97;4979244;28;45402;-86
2021/08/03 09:09:44;;;;;;;;;2.00;2.00;;;;;22.13;62.84;100212.38;4979339;28;45215;-87
2021/08/03 09:12:11;;;;;;;;;3.00;3.00;;;;;22.09;63.74;100218.28;4996748;28;45401;-87
2021/08/03 09:14:39;;;;;;;;;4.00;4.00;;;;;22.00;64.03;100222.84;4997155;28;45451;-86
2021/08/03 09:17:05;;;;;;;;;3.00;3.00;;;;;21.75;63.35;100206.59;4996954;28;45590;-86
2021/08/03 09:19:41;;;;;;;;;3.00;3.00;;;;;21.60;62.90;100217.19;4979239;28;45124;-86
2021/08/03 09:22:19;;;;;;;;;3.25;3.25;;;;;21.40;63.54;100234.69;4997057;28;45054;-87
2021/08/03 09:24:47;;;;;;;;;3.25;2.75;;;;;21.21;63.60;100231.25;4979006;28;47889;-88
2021/08/03 09:27:39;;;;;;;;;4.50;3.25;;;;;21.10;63.47;100236.94;4979208;28;45248;-88
2021/08/03 09:30:10;;;;;;;;;5.00;5.00;;;;;20.86;64.28;100219.56;4979103;28;45248;-87
2021/08/03 09:32:37;;;;;;;;;6.00;4.50;;;;;20.88;64.21;100235.59;4978828;28;45149;-87
2021/08/03 09:35:09;;;;;;;;;4.25;4.25;;;;;20.82;63.98;100227.16;4978520;28;48346;-86
2021/08/03 09:37:35;;;;;;;;;4.00;3.50;;;;;20.81;64.56;100230.00;4996531;28;45241;-87
2021/08/03 09:40:01;;;;;;;;;4.75;4.00;;;;;20.91;64.17;100217.22;4996664;28;45198;-88
2021/08/03 09:42:29;;;;;;;;;4.00;4.00;;;;;21.21;64.21;100207.75;4978693;28;45105;-88
2021/08/03 09:45:00;;;;;;;;;5.00;5.00;;;;;21.48;63.15;100210.38;4978737;28;48141;-87
2021/08/03 09:47:31;;;;;;;;;3.00;3.00;;;;;21.57;62.74;100206.72;4978606;28;45056;-86
2021/08/03 09:49:59;;;;;;;;;2.00;2.00;;;;;21.65;62.16;100212.16;4996731;28;45243;-89
2021/08/03 09:52:30;;;;;;;;;2.75;2.00;;;;;21.64;62.06;100217.72;4978793;28;45312;-87
2021/08/03 09:55:15;;;;;;;;;3.00;3.00;;;;;21.65;61.55;100232.94;4996609;28;45570;-87
2021/08/03 09:57:42;;;;;;;;;2.00;2.00;;;;;21.65;61.16;100220.25;4999825;28;45204;-87
2021/08/03 10:00:49;;;;;;;;;2.00;2.00;;;;;21.75;60.57;100221.97;4999902;28;45313;-88
2021/08/03 10:03:14;;;;;;;;;2.50;2.50;;;;;21.66;60.67;100205.72;4885208;29;45199;-87
2021/08/03 10:05:40;;;;;;;;;1.50;1.50;;;;;21.68;60.53;100213.69;4900891;29;45303;-86
2021/08/03 10:08:06;;;;;;;;;2.25;2.25;;;;;21.63;59.99;100216.03;4900625;29;45188;-89
2021/08/03 10:10:33;;;;;;;;;2.25;2.00;;;;;21.65;61.07;100225.66;4884850;29;45069;-87
2021/08/03 10:12:59;;;;;;;;;2.75;2.75;;;;;21.74;59.93;100217.59;4900638;29;45180;-86
2021/08/03 10:15:24;;;;;;;;;2.00;2.00;;;;;22.06;59.06;100211.34;4884749;29;48059;-87
2021/08/03 10:17:49;;;;;;;;;2.00;2.00;;;;;22.23;57.72;100172.44;4884833;29;45225;-88
2021/08/03 10:20:15;;;;;;;;;2.00;2.00;;;;;22.49;58.41;100200.34;4900679;29;45292;-88
2021/08/03 10:22:55;;;;;;;;;3.75;2.75;;;;;22.45;57.70;100207.16;4900307;29;45410;-88
2021/08/03 10:25:29;;;;;;;;;3.00;3.00;;;;;22.23;58.07;100193.25;4884912;29;46998;-86
2021/08/03 10:27:54;;;;;;;;;4.75;2.50;;;;;22.06;57.55;100185.13;4900601;29;45486;-86
2021/08/03 10:30:28;;;;;;;;;3.00;3.00;;;;;22.20;57.77;100212.53;4900645;29;45269;-88
2021/08/03 10:32:59;;;;;;;;;3.25;3.00;;;;;22.37;57.67;100210.72;4891337;28;45212;-86
2021/08/03 10:35:46;;;;;;;;;2.25;2.25;;;;;22.63;56.67;100212.38;4981747;28;47337;-87
2021/08/03 10:38:18;;;;;;;;;3.00;3.00;;;;;22.77;56.47;100206.25;4981575;28;45459;-87
2021/08/03 10:40:49;;;;;;;;;2.00;2.00;;;;;22.75;56.30;100209.13;4981675;28;45119;-88
2021/08/03 10:43:36;;;;;;;;;2.75;2.25;;;;;22.66;56.52;100209.31;4998109;28;45174;-87
2021/08/03 10:46:08;;;;;;;;;3.00;2.00;;;;;22.52;56.57;100208.16;4981151;28;48633;-88
2021/08/03 10:48:39;;;;;;;;;2.75;2.75;;;;;22.40;57.38;100219.34;4997987;28;45591;-87
2021/08/03 10:51:14;;;;;;;;;2.00;2.00;;;;;22.28;56.17;100215.25;4997890;28;45256;-87
2021/08/03 10:53:51;;;;;;;;;2.00;2.00;;;;;22.21;56.18;100219.66;4997713;28;45498;-86
2021/08/03 10:56:17;;;;;;;;;5.00;2.00;;;;;22.07;56.99;100194.09;4997506;28;48151;-87
2021/08/03 10:58:42;;;;;;;;;2.00;2.00;;;;;22.03;57.06;100188.19;4981330;28;45299;-87
2021/08/03 11:01:07;;;;;;;;;2.25;2.25;;;;;22.09;57.58;100192.09;4999386;28;45141;-87
2021/08/03 11:03:36;;;;;;;;;3.00;2.25;;;;;22.22;56.96;100213.22;4981555;28;45388;-87
2021/08/03 11:06:04;;;;;;;;;3.25;2.00;;;;;22.21;57.06;100212.38;4997253;28;47153;-87
2021/08/03 11:08:48;;;;;;;;;4.00;3.00;;;;;22.20;57.40;100218.81;4996661;28;45827;-87
2021/08/03 11:11:22;;;;;;;;;4.00;3.50;;;;;22.31;57.12;100204.06;4981187;28;45256;-88
2021/08/03 11:13:50;;;;;;;;;4.00;4.00;;;;;22.55;56.48;100211.38;4981270;28;45219;-87
2021/08/03 11:16:18;;;;;;;;;2.00;2.00;;;;;22.84;56.44;100226.22;4981035;28;47190;-88
2021/08/03 11:18:44;;;;;;;;;2.25;2.25;;;;;22.98;55.44;100215.69;4997496;28;45420;-88
2021/08/03 11:21:12;;;;;;;;;2.00;2.00;;;;;23.13;55.08;100215.81;4981166;28;45148;-87
2021/08/03 11:23:57;;;;;;;;;3.00;2.75;;;;;23.24;54.83;100216.31;4997819;28;45159;-87
2021/08/03 11:26:25;;;;;;;;;2.75;2.50;;;;;23.32;54.96;100217.28;4997105;28;48247;-87
2021/08/03 11:28:59;;;;;;;;;5.75;3.25;;;;;23.36;53.36;100221.31;4998834;28;45463;-87
2021/08/03 11:31:38;;;;;;;;;5.50;4.00;;;;;23.03;54.63;100211.44;4997125;28;45247;-87
2021/08/03 11:34:06;;;;;;;;;3.00;3.00;;;;;22.82;55.64;100211.16;4980870;28;45190;-89